sensor_id;sensor_type;location;lat;lon;timestamp;temperature;humidity
7248;DHT22;3665;51.034;13.642;2023-08-08T00:03:18;11.50;99.90
7248;DHT22;3665;51.034;13.642;2023-08-08T00:08:10;11.50;99.90
7248;DHT22;3665;51.034;13.642;2023-08-08T00:12:54;11.50;99.90
7248;DHT22;3665;51.034;13.642;2023-08-08T00:17:41;11.40;99.90
7248;DHT22;3665;51.034;13.642;2023-08-08T00:22:31;11.40;99.90
7248;DHT22;3665;51.034;13.642;2023-08-08T00:27:21;11.40;99.90
7248;DHT22;3665;51.034;13.642;2023-08-08T00:32:07;11.50;99.90
7248;DHT22;3665;51.034;13.642;2023-08-08T00:36:57;11.50;99.90
7248;DHT22;3665;51.034;13.642;2023-08-08T00:41:41;11.40;99.90
7248;DHT22;3665;51.034;13.642;2023-08-08T00:46:30;11.40;99.90
7248;DHT22;3665;51.034;13.642;2023-08-08T00:51:15;11.40;99.90
7248;DHT22;3665;51.034;13.642;2023-08-08T01:01:45;11.40;99.90
7248;DHT22;3665;51.034;13.642;2023-08-08T01:06:36;11.30;99.90
7248;DHT22;3665;51.034;13.642;2023-08-08T01:11:34;11.20;99.90
7248;DHT22;3665;51.034;13.642;2023-08-08T01:16:21;11.20;99.90
7248;DHT22;3665;51.034;13.642;2023-08-08T01:21:14;11.10;99.90
7248;DHT22;3665;51.034;13.642;2023-08-08T01:26:36;11.10;99.90
7248;DHT22;3665;51.034;13.642;2023-08-08T01:31:34;11.00;99.90
7248;DHT22;3665;51.034;13.642;2023-08-08T01:36:28;11.10;99.90
7248;DHT22;3665;51.034;13.642;2023-08-08T01:41:28;11.20;99.90
7248;DHT22;3665;51.034;13.642;2023-08-08T01:46:29;11.20;99.90
7248;DHT22;3665;51.034;13.642;2023-08-08T01:51:17;11.00;99.90
7248;DHT22;3665;51.034;13.642;2023-08-08T01:56:23;11.10;99.90
7248;DHT22;3665;51.034;13.642;2023-08-08T02:01:10;11.10;99.90
7248;DHT22;3665;51.034;13.642;2023-08-08T02:06:19;11.10;99.90
7248;DHT22;3665;51.034;13.642;2023-08-08T02:11:05;11.00;99.90
7248;DHT22;3665;51.034;13.642;2023-08-08T02:15:52;11.00;99.90
7248;DHT22;3665;51.034;13.642;2023-08-08T02:20:38;11.00;99.90
7248;DHT22;3665;51.034;13.642;2023-08-08T02:25:25;11.00;99.90
7248;DHT22;3665;51.034;13.642;2023-08-08T02:30:22;10.90;99.90
7248;DHT22;3665;51.034;13.642;2023-08-08T02:35:18;10.80;99.90
7248;DHT22;3665;51.034;13.642;2023-08-08T02:40:08;10.70;99.90
7248;DHT22;3665;51.034;13.642;2023-08-08T02:44:54;10.70;99.90
7248;DHT22;3665;51.034;13.642;2023-08-08T02:49:38;10.70;99.90
7248;DHT22;3665;51.034;13.642;2023-08-08T02:54:29;10.70;99.90
7248;DHT22;3665;51.034;13.642;2023-08-08T02:59:19;10.50;99.90
7248;DHT22;3665;51.034;13.642;2023-08-08T03:04:07;10.40;99.90
7248;DHT22;3665;51.034;13.642;2023-08-08T03:08:55;10.40;99.90
7248;DHT22;3665;51.034;13.642;2023-08-08T03:13:42;10.50;99.90
7248;DHT22;3665;51.034;13.642;2023-08-08T03:18:30;10.40;99.90
7248;DHT22;3665;51.034;13.642;2023-08-08T03:23:37;10.40;99.90
7248;DHT22;3665;51.034;13.642;2023-08-08T03:28:23;10.40;99.90
7248;DHT22;3665;51.034;13.642;2023-08-08T03:33:09;10.40;99.90
7248;DHT22;3665;51.034;13.642;2023-08-08T03:38:01;10.40;99.90
7248;DHT22;3665;51.034;13.642;2023-08-08T03:42:47;10.50;99.90
7248;DHT22;3665;51.034;13.642;2023-08-08T03:47:34;10.50;99.90
7248;DHT22;3665;51.034;13.642;2023-08-08T03:52:21;10.40;99.90
7248;DHT22;3665;51.034;13.642;2023-08-08T03:57:12;10.50;99.90
7248;DHT22;3665;51.034;13.642;2023-08-08T04:02:04;10.50;99.90
7248;DHT22;3665;51.034;13.642;2023-08-08T04:06:55;10.60;99.90
7248;DHT22;3665;51.034;13.642;2023-08-08T04:11:53;10.70;99.90
7248;DHT22;3665;51.034;13.642;2023-08-08T04:16:38;11.00;99.90
7248;DHT22;3665;51.034;13.642;2023-08-08T04:21:50;11.10;99.90
7248;DHT22;3665;51.034;13.642;2023-08-08T04:26:46;11.30;37.50
7248;DHT22;3665;51.034;13.642;2023-08-08T04:31:34;11.40;11.30
7248;DHT22;3665;51.034;13.642;2023-08-08T04:36:22;11.50;1.00
7248;DHT22;3665;51.034;13.642;2023-08-08T04:41:34;11.80;1.00
7248;DHT22;3665;51.034;13.642;2023-08-08T04:46:35;11.90;1.00
7248;DHT22;3665;51.034;13.642;2023-08-08T04:51:19;11.90;1.00
7248;DHT22;3665;51.034;13.642;2023-08-08T04:56:07;12.00;1.00
7248;DHT22;3665;51.034;13.642;2023-08-08T05:00:57;11.90;1.00
7248;DHT22;3665;51.034;13.642;2023-08-08T05:05:43;11.90;1.00
7248;DHT22;3665;51.034;13.642;2023-08-08T05:10:29;11.90;1.00
7248;DHT22;3665;51.034;13.642;2023-08-08T05:15:18;12.10;1.00
7248;DHT22;3665;51.034;13.642;2023-08-08T05:20:07;12.30;1.00
7248;DHT22;3665;51.034;13.642;2023-08-08T05:24:54;12.50;1.00
7248;DHT22;3665;51.034;13.642;2023-08-08T05:29:44;13.20;1.00
7248;DHT22;3665;51.034;13.642;2023-08-08T05:34:30;13.80;1.00
7248;DHT22;3665;51.034;13.642;2023-08-08T05:39:19;14.20;1.00
7248;DHT22;3665;51.034;13.642;2023-08-08T05:44:05;14.30;1.00
7248;DHT22;3665;51.034;13.642;2023-08-08T05:48:53;13.90;1.00
7248;DHT22;3665;51.034;13.642;2023-08-08T05:54:02;13.80;1.00
7248;DHT22;3665;51.034;13.642;2023-08-08T05:58:48;13.60;1.00
7248;DHT22;3665;51.034;13.642;2023-08-08T06:03:38;13.50;1.00
7248;DHT22;3665;51.034;13.642;2023-08-08T06:08:22;13.50;1.00
7248;DHT22;3665;51.034;13.642;2023-08-08T06:13:12;13.50;1.00
7248;DHT22;3665;51.034;13.642;2023-08-08T06:18:21;13.30;1.00
7248;DHT22;3665;51.034;13.642;2023-08-08T06:23:18;13.40;1.00
7248;DHT22;3665;51.034;13.642;2023-08-08T06:28:05;13.20;1.00
7248;DHT22;3665;51.034;13.642;2023-08-08T06:32:58;13.20;1.00
7248;DHT22;3665;51.034;13.642;2023-08-08T06:37:44;13.30;1.00
7248;DHT22;3665;51.034;13.642;2023-08-08T06:42:31;13.40;1.00
7248;DHT22;3665;51.034;13.642;2023-08-08T06:47:19;13.50;1.00
7248;DHT22;3665;51.034;13.642;2023-08-08T06:52:06;13.60;1.00
7248;DHT22;3665;51.034;13.642;2023-08-08T06:57:18;13.50;1.00
7248;DHT22;3665;51.034;13.642;2023-08-08T07:02:18;13.50;1.00
7248;DHT22;3665;51.034;13.642;2023-08-08T07:07:03;13.50;1.00
7248;DHT22;3665;51.034;13.642;2023-08-08T07:11:53;13.60;1.00
7248;DHT22;3665;51.034;13.642;2023-08-08T07:16:39;13.60;1.00
7248;DHT22;3665;51.034;13.642;2023-08-08T07:21:29;13.50;1.00
7248;DHT22;3665;51.034;13.642;2023-08-08T07:26:15;13.50;1.00
7248;DHT22;3665;51.034;13.642;2023-08-08T07:31:02;13.40;1.00
7248;DHT22;3665;51.034;13.642;2023-08-08T07:35:51;13.80;1.00
7248;DHT22;3665;51.034;13.642;2023-08-08T07:40:39;14.20;1.00
7248;DHT22;3665;51.034;13.642;2023-08-08T07:45:28;14.60;1.00
7248;DHT22;3665;51.034;13.642;2023-08-08T07:50:13;14.90;1.00
7248;DHT22;3665;51.034;13.642;2023-08-08T07:55:02;14.90;1.00
7248;DHT22;3665;51.034;13.642;2023-08-08T07:59:49;15.50;1.00
7248;DHT22;3665;51.034;13.642;2023-08-08T08:04:39;15.50;1.00
7248;DHT22;3665;51.034;13.642;2023-08-08T08:09:27;15.90;1.00
7248;DHT22;3665;51.034;13.642;2023-08-08T08:14:14;16.20;1.00
7248;DHT22;3665;51.034;13.642;2023-08-08T08:19:03;16.40;1.00
7248;DHT22;3665;51.034;13.642;2023-08-08T08:23:50;16.30;1.00
7248;DHT22;3665;51.034;13.642;2023-08-08T08:28:43;16.60;1.00
7248;DHT22;3665;51.034;13.642;2023-08-08T08:33:38;16.70;1.00
7248;DHT22;3665;51.034;13.642;2023-08-08T08:38:31;16.60;1.00
7248;DHT22;3665;51.034;13.642;2023-08-08T08:43:18;16.70;1.00
7248;DHT22;3665;51.034;13.642;2023-08-08T08:48:11;16.90;1.00
7248;DHT22;3665;51.034;13.642;2023-08-08T08:52:58;16.80;1.00
7248;DHT22;3665;51.034;13.642;2023-08-08T08:57:44;16.50;1.00
7248;DHT22;3665;51.034;13.642;2023-08-08T09:02:30;17.00;1.00
7248;DHT22;3665;51.034;13.642;2023-08-08T09:07:14;16.70;1.00
7248;DHT22;3665;51.034;13.642;2023-08-08T09:12:02;16.60;1.00
7248;DHT22;3665;51.034;13.642;2023-08-08T09:16:58;16.40;1.00
7248;DHT22;3665;51.034;13.642;2023-08-08T09:21:42;16.00;1.00
7248;DHT22;3665;51.034;13.642;2023-08-08T09:26:28;16.00;1.00
7248;DHT22;3665;51.034;13.642;2023-08-08T09:31:23;15.90;1.00
7248;DHT22;3665;51.034;13.642;2023-08-08T09:36:07;16.00;1.00
7248;DHT22;3665;51.034;13.642;2023-08-08T09:41:00;15.80;1.00
7248;DHT22;3665;51.034;13.642;2023-08-08T09:45:44;15.70;1.00
7248;DHT22;3665;51.034;13.642;2023-08-08T09:50:33;15.60;1.00
7248;DHT22;3665;51.034;13.642;2023-08-08T09:55:18;15.90;1.00
7248;DHT22;3665;51.034;13.642;2023-08-08T10:00:05;16.40;1.00
7248;DHT22;3665;51.034;13.642;2023-08-08T10:04:54;16.60;1.00
7248;DHT22;3665;51.034;13.642;2023-08-08T10:09:45;16.30;1.00
7248;DHT22;3665;51.034;13.642;2023-08-08T10:14:34;16.50;1.00
7248;DHT22;3665;51.034;13.642;2023-08-08T10:19:23;17.00;1.00
7248;DHT22;3665;51.034;13.642;2023-08-08T10:24:20;17.40;1.00
7248;DHT22;3665;51.034;13.642;2023-08-08T10:29:18;17.70;1.00
7248;DHT22;3665;51.034;13.642;2023-08-08T10:34:03;18.00;1.00
7248;DHT22;3665;51.034;13.642;2023-08-08T10:38:58;18.10;1.00
7248;DHT22;3665;51.034;13.642;2023-08-08T10:43:58;18.20;1.00
7248;DHT22;3665;51.034;13.642;2023-08-08T10:49:05;18.20;1.00
7248;DHT22;3665;51.034;13.642;2023-08-08T10:53:51;17.80;1.00
7248;DHT22;3665;51.034;13.642;2023-08-08T10:58:36;18.00;1.00
7248;DHT22;3665;51.034;13.642;2023-08-08T11:03:22;18.20;1.00
7248;DHT22;3665;51.034;13.642;2023-08-08T11:08:10;18.30;1.00
7248;DHT22;3665;51.034;13.642;2023-08-08T11:13:04;18.40;1.00
7248;DHT22;3665;51.034;13.642;2023-08-08T11:17:49;18.50;1.00
7248;DHT22;3665;51.034;13.642;2023-08-08T11:22:37;18.70;1.00
7248;DHT22;3665;51.034;13.642;2023-08-08T11:27:24;18.80;1.00
7248;DHT22;3665;51.034;13.642;2023-08-08T11:32:11;19.10;1.00
7248;DHT22;3665;51.034;13.642;2023-08-08T11:37:01;19.30;1.00
7248;DHT22;3665;51.034;13.642;2023-08-08T11:41:47;19.70;1.00
7248;DHT22;3665;51.034;13.642;2023-08-08T11:46:43;19.30;1.00
7248;DHT22;3665;51.034;13.642;2023-08-08T11:51:37;20.10;1.00
7248;DHT22;3665;51.034;13.642;2023-08-08T11:56:20;19.90;1.00
7248;DHT22;3665;51.034;13.642;2023-08-08T12:01:14;20.50;1.00
7248;DHT22;3665;51.034;13.642;2023-08-08T12:06:01;21.10;1.00
7248;DHT22;3665;51.034;13.642;2023-08-08T12:11:08;20.80;1.00
7248;DHT22;3665;51.034;13.642;2023-08-08T12:15:58;20.80;1.00
7248;DHT22;3665;51.034;13.642;2023-08-08T12:20:43;20.30;1.00
7248;DHT22;3665;51.034;13.642;2023-08-08T12:25:30;19.80;1.00
7248;DHT22;3665;51.034;13.642;2023-08-08T12:30:18;19.60;1.00
7248;DHT22;3665;51.034;13.642;2023-08-08T12:35:08;19.80;1.00
7248;DHT22;3665;51.034;13.642;2023-08-08T12:39:56;19.40;1.00
7248;DHT22;3665;51.034;13.642;2023-08-08T12:44:45;19.30;1.00
7248;DHT22;3665;51.034;13.642;2023-08-08T12:49:38;19.40;1.00
7248;DHT22;3665;51.034;13.642;2023-08-08T12:54:37;20.30;1.00
7248;DHT22;3665;51.034;13.642;2023-08-08T12:59:39;20.80;1.00
7248;DHT22;3665;51.034;13.642;2023-08-08T13:04:26;20.70;1.00
7248;DHT22;3665;51.034;13.642;2023-08-08T13:09:16;20.20;1.00
7248;DHT22;3665;51.034;13.642;2023-08-08T13:14:02;19.60;1.00
7248;DHT22;3665;51.034;13.642;2023-08-08T13:18:52;19.40;1.00
7248;DHT22;3665;51.034;13.642;2023-08-08T13:23:56;20.20;1.00
7248;DHT22;3665;51.034;13.642;2023-08-08T13:28:42;20.20;1.00
7248;DHT22;3665;51.034;13.642;2023-08-08T13:33:32;19.70;1.00
7248;DHT22;3665;51.034;13.642;2023-08-08T13:38:21;18.70;1.00
7248;DHT22;3665;51.034;13.642;2023-08-08T13:44:45;18.30;1.00
7248;DHT22;3665;51.034;13.642;2023-08-08T13:49:31;18.90;1.00
7248;DHT22;3665;51.034;13.642;2023-08-08T13:54:21;18.50;1.00
7248;DHT22;3665;51.034;13.642;2023-08-08T13:59:06;18.10;1.00
7248;DHT22;3665;51.034;13.642;2023-08-08T14:03:55;17.90;1.00
7248;DHT22;3665;51.034;13.642;2023-08-08T14:08:48;18.20;1.00
7248;DHT22;3665;51.034;13.642;2023-08-08T14:13:40;18.50;1.00
7248;DHT22;3665;51.034;13.642;2023-08-08T14:18:37;18.40;1.00
7248;DHT22;3665;51.034;13.642;2023-08-08T14:23:22;18.30;1.00
7248;DHT22;3665;51.034;13.642;2023-08-08T14:28:12;18.00;1.00
7248;DHT22;3665;51.034;13.642;2023-08-08T14:32:56;18.10;1.00
7248;DHT22;3665;51.034;13.642;2023-08-08T14:37:46;18.60;1.00
7248;DHT22;3665;51.034;13.642;2023-08-08T14:42:34;19.10;1.00
7248;DHT22;3665;51.034;13.642;2023-08-08T14:47:22;19.00;1.00
7248;DHT22;3665;51.034;13.642;2023-08-08T14:52:06;19.20;1.00
7248;DHT22;3665;51.034;13.642;2023-08-08T14:56:56;19.40;1.00
7248;DHT22;3665;51.034;13.642;2023-08-08T15:01:49;19.00;1.00
7248;DHT22;3665;51.034;13.642;2023-08-08T15:06:36;18.60;1.00
7248;DHT22;3665;51.034;13.642;2023-08-08T15:11:23;18.20;1.00
7248;DHT22;3665;51.034;13.642;2023-08-08T15:16:10;17.90;1.00
7248;DHT22;3665;51.034;13.642;2023-08-08T15:20:58;17.90;1.00
7248;DHT22;3665;51.034;13.642;2023-08-08T15:25:56;18.10;1.00
7248;DHT22;3665;51.034;13.642;2023-08-08T15:31:07;18.00;1.00
7248;DHT22;3665;51.034;13.642;2023-08-08T15:35:55;18.60;1.00
7248;DHT22;3665;51.034;13.642;2023-08-08T15:41:00;19.00;1.00
7248;DHT22;3665;51.034;13.642;2023-08-08T15:45:47;19.10;1.00
7248;DHT22;3665;51.034;13.642;2023-08-08T15:50:37;19.00;1.00
7248;DHT22;3665;51.034;13.642;2023-08-08T15:55:23;18.60;1.00
7248;DHT22;3665;51.034;13.642;2023-08-08T16:00:44;18.30;1.00
7248;DHT22;3665;51.034;13.642;2023-08-08T16:05:33;17.80;1.00
7248;DHT22;3665;51.034;13.642;2023-08-08T16:10:19;17.40;1.00
7248;DHT22;3665;51.034;13.642;2023-08-08T16:15:09;17.40;1.00
7248;DHT22;3665;51.034;13.642;2023-08-08T16:19:55;17.40;1.00
7248;DHT22;3665;51.034;13.642;2023-08-08T16:24:45;17.50;1.00
7248;DHT22;3665;51.034;13.642;2023-08-08T16:29:33;17.40;1.00
7248;DHT22;3665;51.034;13.642;2023-08-08T16:34:18;17.20;1.00
7248;DHT22;3665;51.034;13.642;2023-08-08T16:39:18;17.00;1.00
7248;DHT22;3665;51.034;13.642;2023-08-08T16:44:10;16.90;1.00
7248;DHT22;3665;51.034;13.642;2023-08-08T16:49:03;16.60;1.00
7248;DHT22;3665;51.034;13.642;2023-08-08T16:54:33;16.40;1.00
7248;DHT22;3665;51.034;13.642;2023-08-08T16:59:26;16.60;1.00
7248;DHT22;3665;51.034;13.642;2023-08-08T17:04:12;16.40;1.00
7248;DHT22;3665;51.034;13.642;2023-08-08T17:09:07;16.10;1.00
7248;DHT22;3665;51.034;13.642;2023-08-08T17:14:05;16.10;1.00
7248;DHT22;3665;51.034;13.642;2023-08-08T17:18:53;16.10;1.00
7248;DHT22;3665;51.034;13.642;2023-08-08T17:23:40;15.90;1.00
7248;DHT22;3665;51.034;13.642;2023-08-08T17:28:28;15.60;1.00
7248;DHT22;3665;51.034;13.642;2023-08-08T17:33:15;15.40;1.00
7248;DHT22;3665;51.034;13.642;2023-08-08T17:38:05;15.30;1.00
7248;DHT22;3665;51.034;13.642;2023-08-08T17:42:51;15.20;1.00
7248;DHT22;3665;51.034;13.642;2023-08-08T17:47:34;15.00;1.00
7248;DHT22;3665;51.034;13.642;2023-08-08T17:52:30;15.00;1.00
7248;DHT22;3665;51.034;13.642;2023-08-08T17:57:15;15.10;1.00
7248;DHT22;3665;51.034;13.642;2023-08-08T18:02:04;15.20;1.00
7248;DHT22;3665;51.034;13.642;2023-08-08T18:06:52;15.10;1.00
7248;DHT22;3665;51.034;13.642;2023-08-08T18:11:40;15.10;1.00
7248;DHT22;3665;51.034;13.642;2023-08-08T18:16:47;14.90;1.00
7248;DHT22;3665;51.034;13.642;2023-08-08T18:21:32;14.70;1.00
7248;DHT22;3665;51.034;13.642;2023-08-08T18:26:38;14.50;1.00
7248;DHT22;3665;51.034;13.642;2023-08-08T18:31:25;14.40;1.00
7248;DHT22;3665;51.034;13.642;2023-08-08T18:36:10;14.30;1.00
7248;DHT22;3665;51.034;13.642;2023-08-08T18:41:01;14.20;1.00
7248;DHT22;3665;51.034;13.642;2023-08-08T18:45:46;14.20;1.00
7248;DHT22;3665;51.034;13.642;2023-08-08T18:50:38;14.10;1.00
7248;DHT22;3665;51.034;13.642;2023-08-08T18:55:22;14.00;1.00
7248;DHT22;3665;51.034;13.642;2023-08-08T19:00:13;13.80;1.00
7248;DHT22;3665;51.034;13.642;2023-08-08T19:05:01;13.70;1.00
7248;DHT22;3665;51.034;13.642;2023-08-08T19:09:47;13.70;1.00
7248;DHT22;3665;51.034;13.642;2023-08-08T19:14:35;13.50;1.00
7248;DHT22;3665;51.034;13.642;2023-08-08T19:19:25;13.60;1.00
7248;DHT22;3665;51.034;13.642;2023-08-08T19:24:11;13.50;1.00
7248;DHT22;3665;51.034;13.642;2023-08-08T19:28:59;13.50;1.00
7248;DHT22;3665;51.034;13.642;2023-08-08T19:33:52;13.50;1.00
7248;DHT22;3665;51.034;13.642;2023-08-08T19:38:53;13.40;1.00
7248;DHT22;3665;51.034;13.642;2023-08-08T19:43:40;13.50;1.00
7248;DHT22;3665;51.034;13.642;2023-08-08T19:48:27;13.40;1.00
7248;DHT22;3665;51.034;13.642;2023-08-08T19:53:17;13.30;1.00
7248;DHT22;3665;51.034;13.642;2023-08-08T19:58:03;13.40;1.00
7248;DHT22;3665;51.034;13.642;2023-08-08T20:03:13;13.40;1.00
7248;DHT22;3665;51.034;13.642;2023-08-08T20:07:57;13.40;1.00
7248;DHT22;3665;51.034;13.642;2023-08-08T20:12:45;13.40;1.00
7248;DHT22;3665;51.034;13.642;2023-08-08T20:17:40;13.40;1.00
7248;DHT22;3665;51.034;13.642;2023-08-08T20:22:37;13.40;1.00
7248;DHT22;3665;51.034;13.642;2023-08-08T20:27:25;13.40;1.00
7248;DHT22;3665;51.034;13.642;2023-08-08T20:32:11;13.50;1.00
7248;DHT22;3665;51.034;13.642;2023-08-08T20:36:59;13.50;1.00
7248;DHT22;3665;51.034;13.642;2023-08-08T20:41:48;13.50;1.00
7248;DHT22;3665;51.034;13.642;2023-08-08T20:46:34;13.50;1.00
7248;DHT22;3665;51.034;13.642;2023-08-08T20:51:28;13.50;1.00
7248;DHT22;3665;51.034;13.642;2023-08-08T20:56:19;13.60;1.00
7248;DHT22;3665;51.034;13.642;2023-08-08T21:01:39;13.70;1.00
7248;DHT22;3665;51.034;13.642;2023-08-08T21:06:56;13.90;1.00
7248;DHT22;3665;51.034;13.642;2023-08-08T21:11:43;13.90;1.00
7248;DHT22;3665;51.034;13.642;2023-08-08T21:16:31;14.00;1.00
7248;DHT22;3665;51.034;13.642;2023-08-08T21:21:32;14.00;1.00
7248;DHT22;3665;51.034;13.642;2023-08-08T21:26:19;14.00;1.00
7248;DHT22;3665;51.034;13.642;2023-08-08T21:31:25;13.90;1.00
7248;DHT22;3665;51.034;13.642;2023-08-08T21:36:12;13.90;1.00
7248;DHT22;3665;51.034;13.642;2023-08-08T21:40:59;13.80;1.00
7248;DHT22;3665;51.034;13.642;2023-08-08T21:45:46;13.70;1.00
7248;DHT22;3665;51.034;13.642;2023-08-08T21:50:35;13.50;1.00
7248;DHT22;3665;51.034;13.642;2023-08-08T21:55:23;13.40;1.00
7248;DHT22;3665;51.034;13.642;2023-08-08T22:00:16;13.40;1.00
7248;DHT22;3665;51.034;13.642;2023-08-08T22:05:34;13.20;1.00
7248;DHT22;3665;51.034;13.642;2023-08-08T22:10:21;13.10;1.00
7248;DHT22;3665;51.034;13.642;2023-08-08T22:15:07;13.00;1.00
7248;DHT22;3665;51.034;13.642;2023-08-08T22:19:57;13.00;1.00
7248;DHT22;3665;51.034;13.642;2023-08-08T22:24:45;13.00;1.00
7248;DHT22;3665;51.034;13.642;2023-08-08T22:29:31;13.00;1.00
7248;DHT22;3665;51.034;13.642;2023-08-08T22:34:27;13.00;1.00
7248;DHT22;3665;51.034;13.642;2023-08-08T22:39:29;13.10;1.00
7248;DHT22;3665;51.034;13.642;2023-08-08T22:44:28;13.00;1.00
7248;DHT22;3665;51.034;13.642;2023-08-08T22:49:17;13.00;1.00
7248;DHT22;3665;51.034;13.642;2023-08-08T22:54:06;12.90;1.00
7248;DHT22;3665;51.034;13.642;2023-08-08T22:58:53;12.90;1.00
7248;DHT22;3665;51.034;13.642;2023-08-08T23:03:42;13.00;1.00
7248;DHT22;3665;51.034;13.642;2023-08-08T23:08:27;12.90;1.00
7248;DHT22;3665;51.034;13.642;2023-08-08T23:13:20;13.00;1.00
7248;DHT22;3665;51.034;13.642;2023-08-08T23:18:05;13.00;1.00
7248;DHT22;3665;51.034;13.642;2023-08-08T23:22:51;12.90;1.00
7248;DHT22;3665;51.034;13.642;2023-08-08T23:27:39;12.90;1.00
7248;DHT22;3665;51.034;13.642;2023-08-08T23:32:26;12.90;1.00
7248;DHT22;3665;51.034;13.642;2023-08-08T23:37:18;12.90;1.00
7248;DHT22;3665;51.034;13.642;2023-08-08T23:42:07;12.80;1.00
7248;DHT22;3665;51.034;13.642;2023-08-08T23:46:57;12.90;1.00
7248;DHT22;3665;51.034;13.642;2023-08-08T23:51:59;12.70;1.00
7248;DHT22;3665;51.034;13.642;2023-08-08T23:56:46;12.70;1.00
